sensor_id;sensor_type;location;lat;lon;timestamp;P1;durP1;ratioP1;P2;durP2;ratioP2
45136;SDS011;30894;51.740;19.498;2023-07-28T00:00:18;3.13;;;1.70;;
45136;SDS011;30894;51.740;19.498;2023-07-28T00:03:05;3.30;;;1.83;;
45136;SDS011;30894;51.740;19.498;2023-07-28T00:05:30;2.75;;;1.70;;
45136;SDS011;30894;51.740;19.498;2023-07-28T00:07:57;2.90;;;1.58;;
45136;SDS011;30894;51.740;19.498;2023-07-28T00:10:23;2.05;;;1.48;;
45136;SDS011;30894;51.740;19.498;2023-07-28T00:12:49;2.50;;;1.45;;
45136;SDS011;30894;51.740;19.498;2023-07-28T00:15:15;3.92;;;2.03;;
45136;SDS011;30894;51.740;19.498;2023-07-28T00:17:41;3.63;;;1.33;;
45136;SDS011;30894;51.740;19.498;2023-07-28T00:20:08;4.75;;;1.75;;
45136;SDS011;30894;51.740;19.498;2023-07-28T00:22:34;2.85;;;1.85;;
45136;SDS011;30894;51.740;19.498;2023-07-28T00:25:00;5.85;;;1.95;;
45136;SDS011;30894;51.740;19.498;2023-07-28T00:27:27;4.18;;;1.83;;
45136;SDS011;30894;51.740;19.498;2023-07-28T00:29:52;3.65;;;1.52;;
45136;SDS011;30894;51.740;19.498;2023-07-28T00:32:19;3.10;;;1.95;;
45136;SDS011;30894;51.740;19.498;2023-07-28T00:34:45;2.95;;;1.92;;
45136;SDS011;30894;51.740;19.498;2023-07-28T00:37:12;4.03;;;1.98;;
45136;SDS011;30894;51.740;19.498;2023-07-28T00:39:38;4.15;;;2.00;;
45136;SDS011;30894;51.740;19.498;2023-07-28T00:42:04;3.67;;;1.98;;
45136;SDS011;30894;51.740;19.498;2023-07-28T00:44:31;3.63;;;1.88;;
45136;SDS011;30894;51.740;19.498;2023-07-28T00:46:57;2.88;;;1.88;;
45136;SDS011;30894;51.740;19.498;2023-07-28T00:49:23;3.50;;;1.92;;
45136;SDS011;30894;51.740;19.498;2023-07-28T00:51:50;4.93;;;1.73;;
45136;SDS011;30894;51.740;19.498;2023-07-28T00:54:17;5.72;;;1.77;;
45136;SDS011;30894;51.740;19.498;2023-07-28T00:56:44;3.97;;;1.75;;
45136;SDS011;30894;51.740;19.498;2023-07-28T00:59:11;4.80;;;2.05;;
45136;SDS011;30894;51.740;19.498;2023-07-28T01:01:38;4.18;;;2.55;;
45136;SDS011;30894;51.740;19.498;2023-07-28T01:04:03;2.83;;;1.83;;
45136;SDS011;30894;51.740;19.498;2023-07-28T01:06:35;5.05;;;1.65;;
45136;SDS011;30894;51.740;19.498;2023-07-28T01:09:16;3.47;;;1.75;;
45136;SDS011;30894;51.740;19.498;2023-07-28T01:11:54;2.85;;;1.70;;
45136;SDS011;30894;51.740;19.498;2023-07-28T01:14:24;4.93;;;1.98;;
45136;SDS011;30894;51.740;19.498;2023-07-28T01:16:50;6.40;;;1.90;;
45136;SDS011;30894;51.740;19.498;2023-07-28T01:19:17;6.32;;;1.95;;
45136;SDS011;30894;51.740;19.498;2023-07-28T01:21:48;3.70;;;2.05;;
45136;SDS011;30894;51.740;19.498;2023-07-28T01:27:33;4.25;;;2.25;;
45136;SDS011;30894;51.740;19.498;2023-07-28T01:30:00;2.97;;;1.48;;
45136;SDS011;30894;51.740;19.498;2023-07-28T01:32:27;7.85;;;2.10;;
45136;SDS011;30894;51.740;19.498;2023-07-28T01:34:53;3.88;;;2.10;;
45136;SDS011;30894;51.740;19.498;2023-07-28T01:37:19;3.88;;;1.80;;
45136;SDS011;30894;51.740;19.498;2023-07-28T01:39:45;5.50;;;1.80;;
45136;SDS011;30894;51.740;19.498;2023-07-28T01:42:11;3.40;;;2.10;;
45136;SDS011;30894;51.740;19.498;2023-07-28T01:44:37;3.25;;;2.17;;
45136;SDS011;30894;51.740;19.498;2023-07-28T01:47:03;3.35;;;1.80;;
45136;SDS011;30894;51.740;19.498;2023-07-28T01:49:29;4.82;;;2.35;;
45136;SDS011;30894;51.740;19.498;2023-07-28T01:51:56;3.33;;;2.13;;
45136;SDS011;30894;51.740;19.498;2023-07-28T01:54:22;3.85;;;2.15;;
45136;SDS011;30894;51.740;19.498;2023-07-28T01:56:48;5.60;;;2.10;;
45136;SDS011;30894;51.740;19.498;2023-07-28T01:59:14;3.20;;;2.05;;
45136;SDS011;30894;51.740;19.498;2023-07-28T02:01:41;3.00;;;1.77;;
45136;SDS011;30894;51.740;19.498;2023-07-28T02:04:08;4.80;;;2.20;;
45136;SDS011;30894;51.740;19.498;2023-07-28T02:06:34;4.20;;;2.45;;
45136;SDS011;30894;51.740;19.498;2023-07-28T02:09:00;4.40;;;2.15;;
45136;SDS011;30894;51.740;19.498;2023-07-28T02:11:26;6.22;;;2.20;;
45136;SDS011;30894;51.740;19.498;2023-07-28T02:13:52;5.95;;;2.17;;
45136;SDS011;30894;51.740;19.498;2023-07-28T02:16:18;4.70;;;2.30;;
45136;SDS011;30894;51.740;19.498;2023-07-28T02:18:44;3.53;;;2.20;;
45136;SDS011;30894;51.740;19.498;2023-07-28T02:21:10;3.80;;;2.03;;
45136;SDS011;30894;51.740;19.498;2023-07-28T02:23:36;4.03;;;2.47;;
45136;SDS011;30894;51.740;19.498;2023-07-28T02:26:02;4.20;;;2.03;;
45136;SDS011;30894;51.740;19.498;2023-07-28T02:28:28;4.72;;;2.17;;
45136;SDS011;30894;51.740;19.498;2023-07-28T02:30:54;4.28;;;1.95;;
45136;SDS011;30894;51.740;19.498;2023-07-28T02:33:20;6.35;;;1.90;;
45136;SDS011;30894;51.740;19.498;2023-07-28T02:35:47;9.88;;;2.47;;
45136;SDS011;30894;51.740;19.498;2023-07-28T02:38:13;3.10;;;2.10;;
45136;SDS011;30894;51.740;19.498;2023-07-28T02:40:39;5.63;;;2.78;;
45136;SDS011;30894;51.740;19.498;2023-07-28T02:43:05;4.68;;;1.75;;
45136;SDS011;30894;51.740;19.498;2023-07-28T02:45:31;3.83;;;2.00;;
45136;SDS011;30894;51.740;19.498;2023-07-28T02:47:57;5.32;;;2.10;;
45136;SDS011;30894;51.740;19.498;2023-07-28T02:50:23;3.40;;;2.00;;
45136;SDS011;30894;51.740;19.498;2023-07-28T02:52:49;4.93;;;2.25;;
45136;SDS011;30894;51.740;19.498;2023-07-28T02:55:15;3.45;;;1.88;;
45136;SDS011;30894;51.740;19.498;2023-07-28T02:57:41;6.13;;;1.88;;
45136;SDS011;30894;51.740;19.498;2023-07-28T03:00:07;3.40;;;1.98;;
45136;SDS011;30894;51.740;19.498;2023-07-28T03:02:36;6.75;;;2.00;;
45136;SDS011;30894;51.740;19.498;2023-07-28T03:05:02;3.58;;;1.95;;
45136;SDS011;30894;51.740;19.498;2023-07-28T03:07:29;2.30;;;2.03;;
45136;SDS011;30894;51.740;19.498;2023-07-28T03:09:55;3.75;;;1.67;;
45136;SDS011;30894;51.740;19.498;2023-07-28T03:12:21;3.72;;;1.63;;
45136;SDS011;30894;51.740;19.498;2023-07-28T03:14:48;6.30;;;2.38;;
45136;SDS011;30894;51.740;19.498;2023-07-28T03:17:14;1.92;;;1.70;;
45136;SDS011;30894;51.740;19.498;2023-07-28T03:19:40;2.85;;;2.08;;
45136;SDS011;30894;51.740;19.498;2023-07-28T03:22:06;4.18;;;2.28;;
45136;SDS011;30894;51.740;19.498;2023-07-28T03:24:32;4.25;;;1.75;;
45136;SDS011;30894;51.740;19.498;2023-07-28T03:26:58;2.35;;;1.42;;
45136;SDS011;30894;51.740;19.498;2023-07-28T03:29:25;2.20;;;1.70;;
45136;SDS011;30894;51.740;19.498;2023-07-28T03:31:50;2.40;;;1.40;;
45136;SDS011;30894;51.740;19.498;2023-07-28T03:34:17;2.95;;;1.50;;
45136;SDS011;30894;51.740;19.498;2023-07-28T03:36:43;2.42;;;1.70;;
45136;SDS011;30894;51.740;19.498;2023-07-28T03:39:09;4.78;;;1.23;;
45136;SDS011;30894;51.740;19.498;2023-07-28T03:41:35;1.98;;;1.52;;
45136;SDS011;30894;51.740;19.498;2023-07-28T03:44:01;4.20;;;1.73;;
45136;SDS011;30894;51.740;19.498;2023-07-28T03:46:27;3.63;;;1.15;;
45136;SDS011;30894;51.740;19.498;2023-07-28T03:48:53;3.03;;;1.45;;
45136;SDS011;30894;51.740;19.498;2023-07-28T03:51:19;2.08;;;1.40;;
45136;SDS011;30894;51.740;19.498;2023-07-28T03:53:46;3.25;;;1.52;;
45136;SDS011;30894;51.740;19.498;2023-07-28T03:56:11;1.55;;;1.05;;
45136;SDS011;30894;51.740;19.498;2023-07-28T03:58:38;5.15;;;1.60;;
45136;SDS011;30894;51.740;19.498;2023-07-28T04:01:05;4.97;;;1.45;;
45136;SDS011;30894;51.740;19.498;2023-07-28T04:03:33;2.47;;;1.52;;
45136;SDS011;30894;51.740;19.498;2023-07-28T04:05:58;2.45;;;1.50;;
45136;SDS011;30894;51.740;19.498;2023-07-28T04:08:25;2.60;;;1.75;;
45136;SDS011;30894;51.740;19.498;2023-07-28T04:10:51;2.72;;;1.60;;
45136;SDS011;30894;51.740;19.498;2023-07-28T04:13:17;2.85;;;1.30;;
45136;SDS011;30894;51.740;19.498;2023-07-28T04:15:43;3.08;;;1.25;;
45136;SDS011;30894;51.740;19.498;2023-07-28T04:18:09;2.08;;;1.30;;
45136;SDS011;30894;51.740;19.498;2023-07-28T04:20:35;2.38;;;1.10;;
45136;SDS011;30894;51.740;19.498;2023-07-28T04:23:01;2.38;;;1.23;;
45136;SDS011;30894;51.740;19.498;2023-07-28T04:25:28;2.80;;;1.00;;
45136;SDS011;30894;51.740;19.498;2023-07-28T04:27:54;1.10;;;0.80;;
45136;SDS011;30894;51.740;19.498;2023-07-28T04:30:21;2.03;;;1.60;;
45136;SDS011;30894;51.740;19.498;2023-07-28T04:32:47;1.73;;;1.20;;
45136;SDS011;30894;51.740;19.498;2023-07-28T04:35:14;1.77;;;1.00;;
45136;SDS011;30894;51.740;19.498;2023-07-28T04:37:40;4.68;;;1.92;;
45136;SDS011;30894;51.740;19.498;2023-07-28T04:40:07;2.33;;;1.35;;
45136;SDS011;30894;51.740;19.498;2023-07-28T04:42:34;1.55;;;1.40;;
45136;SDS011;30894;51.740;19.498;2023-07-28T04:45:01;1.52;;;1.20;;
45136;SDS011;30894;51.740;19.498;2023-07-28T04:47:29;2.30;;;1.40;;
45136;SDS011;30894;51.740;19.498;2023-07-28T04:49:54;1.25;;;1.15;;
45136;SDS011;30894;51.740;19.498;2023-07-28T04:52:21;2.45;;;1.45;;
45136;SDS011;30894;51.740;19.498;2023-07-28T04:54:50;2.63;;;1.27;;
45136;SDS011;30894;51.740;19.498;2023-07-28T04:57:16;5.90;;;1.63;;
45136;SDS011;30894;51.740;19.498;2023-07-28T04:59:44;5.50;;;1.30;;
45136;SDS011;30894;51.740;19.498;2023-07-28T05:02:11;2.80;;;1.30;;
45136;SDS011;30894;51.740;19.498;2023-07-28T05:04:37;1.92;;;1.25;;
45136;SDS011;30894;51.740;19.498;2023-07-28T05:07:04;2.67;;;1.20;;
45136;SDS011;30894;51.740;19.498;2023-07-28T05:09:30;3.17;;;1.55;;
45136;SDS011;30894;51.740;19.498;2023-07-28T05:11:56;1.98;;;1.63;;
45136;SDS011;30894;51.740;19.498;2023-07-28T05:14:22;2.38;;;1.42;;
45136;SDS011;30894;51.740;19.498;2023-07-28T05:16:48;2.50;;;1.50;;
45136;SDS011;30894;51.740;19.498;2023-07-28T05:19:14;2.47;;;1.90;;
45136;SDS011;30894;51.740;19.498;2023-07-28T05:21:40;4.43;;;1.52;;
45136;SDS011;30894;51.740;19.498;2023-07-28T05:24:06;2.30;;;1.70;;
45136;SDS011;30894;51.740;19.498;2023-07-28T05:26:32;2.80;;;1.50;;
45136;SDS011;30894;51.740;19.498;2023-07-28T05:28:58;2.53;;;1.55;;
45136;SDS011;30894;51.740;19.498;2023-07-28T05:31:25;2.25;;;1.48;;
45136;SDS011;30894;51.740;19.498;2023-07-28T05:33:51;3.20;;;1.90;;
45136;SDS011;30894;51.740;19.498;2023-07-28T05:36:19;2.85;;;1.63;;
45136;SDS011;30894;51.740;19.498;2023-07-28T05:38:45;6.38;;;2.08;;
45136;SDS011;30894;51.740;19.498;2023-07-28T05:41:11;2.08;;;1.75;;
45136;SDS011;30894;51.740;19.498;2023-07-28T05:43:37;3.90;;;1.75;;
45136;SDS011;30894;51.740;19.498;2023-07-28T05:46:03;2.55;;;1.60;;
45136;SDS011;30894;51.740;19.498;2023-07-28T05:48:29;2.72;;;1.70;;
45136;SDS011;30894;51.740;19.498;2023-07-28T05:50:55;1.90;;;1.30;;
45136;SDS011;30894;51.740;19.498;2023-07-28T05:53:21;4.13;;;1.55;;
45136;SDS011;30894;51.740;19.498;2023-07-28T05:55:48;2.38;;;1.45;;
45136;SDS011;30894;51.740;19.498;2023-07-28T05:58:14;3.40;;;1.48;;
45136;SDS011;30894;51.740;19.498;2023-07-28T06:00:40;3.45;;;1.60;;
45136;SDS011;30894;51.740;19.498;2023-07-28T06:03:10;2.38;;;1.40;;
45136;SDS011;30894;51.740;19.498;2023-07-28T06:05:40;2.10;;;1.38;;
45136;SDS011;30894;51.740;19.498;2023-07-28T06:08:07;4.90;;;1.33;;
45136;SDS011;30894;51.740;19.498;2023-07-28T06:10:34;1.30;;;1.15;;
45136;SDS011;30894;51.740;19.498;2023-07-28T06:13:00;3.17;;;1.73;;
45136;SDS011;30894;51.740;19.498;2023-07-28T06:15:27;4.03;;;1.60;;
45136;SDS011;30894;51.740;19.498;2023-07-28T06:17:53;2.78;;;1.73;;
45136;SDS011;30894;51.740;19.498;2023-07-28T06:20:19;2.30;;;1.40;;
45136;SDS011;30894;51.740;19.498;2023-07-28T06:22:45;1.92;;;1.42;;
45136;SDS011;30894;51.740;19.498;2023-07-28T06:25:12;2.80;;;1.65;;
45136;SDS011;30894;51.740;19.498;2023-07-28T06:27:38;2.65;;;1.60;;
45136;SDS011;30894;51.740;19.498;2023-07-28T06:30:04;3.63;;;1.52;;
45136;SDS011;30894;51.740;19.498;2023-07-28T06:32:31;3.08;;;1.60;;
45136;SDS011;30894;51.740;19.498;2023-07-28T06:35:00;2.10;;;1.35;;
45136;SDS011;30894;51.740;19.498;2023-07-28T06:37:26;5.95;;;1.95;;
45136;SDS011;30894;51.740;19.498;2023-07-28T06:39:53;2.63;;;1.65;;
45136;SDS011;30894;51.740;19.498;2023-07-28T06:42:21;3.53;;;1.40;;
45136;SDS011;30894;51.740;19.498;2023-07-28T06:44:50;1.67;;;1.33;;
45136;SDS011;30894;51.740;19.498;2023-07-28T06:47:16;3.60;;;1.40;;
45136;SDS011;30894;51.740;19.498;2023-07-28T06:49:44;4.53;;;2.15;;
45136;SDS011;30894;51.740;19.498;2023-07-28T06:52:10;1.60;;;1.02;;
45136;SDS011;30894;51.740;19.498;2023-07-28T06:54:36;3.03;;;1.70;;
45136;SDS011;30894;51.740;19.498;2023-07-28T06:57:02;2.33;;;1.33;;
45136;SDS011;30894;51.740;19.498;2023-07-28T06:59:30;4.38;;;2.13;;
45136;SDS011;30894;51.740;19.498;2023-07-28T07:01:56;3.38;;;1.58;;
45136;SDS011;30894;51.740;19.498;2023-07-28T07:04:28;2.60;;;1.33;;
45136;SDS011;30894;51.740;19.498;2023-07-28T07:06:57;6.88;;;1.50;;
45136;SDS011;30894;51.740;19.498;2023-07-28T07:09:26;2.50;;;1.33;;
45136;SDS011;30894;51.740;19.498;2023-07-28T07:11:52;4.55;;;1.63;;
45136;SDS011;30894;51.740;19.498;2023-07-28T07:14:19;2.00;;;1.33;;
45136;SDS011;30894;51.740;19.498;2023-07-28T07:16:45;1.63;;;1.00;;
45136;SDS011;30894;51.740;19.498;2023-07-28T07:19:12;3.03;;;1.50;;
45136;SDS011;30894;51.740;19.498;2023-07-28T07:21:38;1.67;;;1.25;;
45136;SDS011;30894;51.740;19.498;2023-07-28T07:24:05;3.35;;;1.20;;
45136;SDS011;30894;51.740;19.498;2023-07-28T07:26:32;2.25;;;1.27;;
45136;SDS011;30894;51.740;19.498;2023-07-28T07:29:01;3.88;;;1.30;;
45136;SDS011;30894;51.740;19.498;2023-07-28T07:31:31;1.77;;;1.27;;
45136;SDS011;30894;51.740;19.498;2023-07-28T07:33:59;2.72;;;1.30;;
45136;SDS011;30894;51.740;19.498;2023-07-28T07:36:30;4.07;;;1.20;;
45136;SDS011;30894;51.740;19.498;2023-07-28T07:38:58;0.98;;;0.82;;
45136;SDS011;30894;51.740;19.498;2023-07-28T07:41:30;1.10;;;1.00;;
45136;SDS011;30894;51.740;19.498;2023-07-28T07:43:56;1.52;;;0.88;;
45136;SDS011;30894;51.740;19.498;2023-07-28T07:46:25;1.20;;;1.10;;
45136;SDS011;30894;51.740;19.498;2023-07-28T07:48:51;0.73;;;0.73;;
45136;SDS011;30894;51.740;19.498;2023-07-28T07:51:20;1.58;;;1.10;;
45136;SDS011;30894;51.740;19.498;2023-07-28T07:53:46;3.72;;;1.13;;
45136;SDS011;30894;51.740;19.498;2023-07-28T07:56:13;1.65;;;1.08;;
45136;SDS011;30894;51.740;19.498;2023-07-28T07:58:39;1.08;;;0.93;;
45136;SDS011;30894;51.740;19.498;2023-07-28T08:01:05;1.17;;;1.08;;
45136;SDS011;30894;51.740;19.498;2023-07-28T08:03:32;1.10;;;1.00;;
45136;SDS011;30894;51.740;19.498;2023-07-28T08:05:58;2.05;;;1.15;;
45136;SDS011;30894;51.740;19.498;2023-07-28T08:08:25;2.60;;;1.30;;
45136;SDS011;30894;51.740;19.498;2023-07-28T08:10:52;2.20;;;0.98;;
45136;SDS011;30894;51.740;19.498;2023-07-28T08:13:19;0.88;;;0.80;;
45136;SDS011;30894;51.740;19.498;2023-07-28T08:15:51;1.25;;;0.90;;
45136;SDS011;30894;51.740;19.498;2023-07-28T08:18:18;1.20;;;1.00;;
45136;SDS011;30894;51.740;19.498;2023-07-28T08:20:45;2.95;;;0.85;;
45136;SDS011;30894;51.740;19.498;2023-07-28T08:23:14;1.02;;;0.60;;
45136;SDS011;30894;51.740;19.498;2023-07-28T08:25:40;3.40;;;1.15;;
45136;SDS011;30894;51.740;19.498;2023-07-28T08:28:07;1.90;;;0.63;;
45136;SDS011;30894;51.740;19.498;2023-07-28T08:30:33;0.88;;;0.70;;
45136;SDS011;30894;51.740;19.498;2023-07-28T08:33:00;2.15;;;0.50;;
45136;SDS011;30894;51.740;19.498;2023-07-28T08:35:28;1.98;;;0.55;;
45136;SDS011;30894;51.740;19.498;2023-07-28T08:37:54;6.32;;;1.20;;
45136;SDS011;30894;51.740;19.498;2023-07-28T08:40:21;2.97;;;0.90;;
45136;SDS011;30894;51.740;19.498;2023-07-28T08:42:49;2.17;;;0.88;;
45136;SDS011;30894;51.740;19.498;2023-07-28T08:45:17;0.80;;;0.80;;
45136;SDS011;30894;51.740;19.498;2023-07-28T08:47:44;1.88;;;1.00;;
45136;SDS011;30894;51.740;19.498;2023-07-28T08:50:11;0.50;;;0.50;;
45136;SDS011;30894;51.740;19.498;2023-07-28T08:52:37;0.82;;;0.60;;
45136;SDS011;30894;51.740;19.498;2023-07-28T08:55:04;0.98;;;0.70;;
45136;SDS011;30894;51.740;19.498;2023-07-28T08:57:31;1.40;;;0.80;;
45136;SDS011;30894;51.740;19.498;2023-07-28T08:59:58;0.50;;;0.50;;
45136;SDS011;30894;51.740;19.498;2023-07-28T09:02:32;0.80;;;0.55;;
45136;SDS011;30894;51.740;19.498;2023-07-28T09:04:58;1.98;;;0.60;;
45136;SDS011;30894;51.740;19.498;2023-07-28T09:07:36;4.43;;;0.70;;
45136;SDS011;30894;51.740;19.498;2023-07-28T09:10:03;0.83;;;0.70;;
45136;SDS011;30894;51.740;19.498;2023-07-28T09:12:32;1.73;;;0.63;;
45136;SDS011;30894;51.740;19.498;2023-07-28T09:15:00;1.27;;;0.50;;
45136;SDS011;30894;51.740;19.498;2023-07-28T09:17:26;0.10;;;0.10;;
45136;SDS011;30894;51.740;19.498;2023-07-28T09:19:59;0.57;;;0.28;;
45136;SDS011;30894;51.740;19.498;2023-07-28T09:22:25;0.32;;;0.32;;
45136;SDS011;30894;51.740;19.498;2023-07-28T09:24:52;0.43;;;0.10;;
45136;SDS011;30894;51.740;19.498;2023-07-28T09:27:23;2.33;;;0.63;;
45136;SDS011;30894;51.740;19.498;2023-07-28T09:29:54;0.95;;;0.38;;
45136;SDS011;30894;51.740;19.498;2023-07-28T09:32:27;0.65;;;0.45;;
45136;SDS011;30894;51.740;19.498;2023-07-28T09:35:09;0.55;;;0.55;;
45136;SDS011;30894;51.740;19.498;2023-07-28T09:37:42;0.30;;;0.30;;
45136;SDS011;30894;51.740;19.498;2023-07-28T09:40:22;0.75;;;0.40;;
45136;SDS011;30894;51.740;19.498;2023-07-28T09:42:49;1.42;;;0.70;;
45136;SDS011;30894;51.740;19.498;2023-07-28T09:45:17;1.25;;;0.65;;
45136;SDS011;30894;51.740;19.498;2023-07-28T09:47:51;1.05;;;0.38;;
45136;SDS011;30894;51.740;19.498;2023-07-28T09:50:22;0.28;;;0.28;;
45136;SDS011;30894;51.740;19.498;2023-07-28T09:52:54;2.15;;;0.80;;
45136;SDS011;30894;51.740;19.498;2023-07-28T09:55:48;1.10;;;0.60;;
45136;SDS011;30894;51.740;19.498;2023-07-28T09:58:17;0.70;;;0.70;;
45136;SDS011;30894;51.740;19.498;2023-07-28T10:00:46;0.60;;;0.60;;
45136;SDS011;30894;51.740;19.498;2023-07-28T10:03:14;1.45;;;0.70;;
45136;SDS011;30894;51.740;19.498;2023-07-28T10:05:43;2.67;;;0.30;;
45136;SDS011;30894;51.740;19.498;2023-07-28T10:08:20;0.50;;;0.50;;
45136;SDS011;30894;51.740;19.498;2023-07-28T10:11:57;0.40;;;0.40;;
45136;SDS011;30894;51.740;19.498;2023-07-28T10:15:06;0.10;;;0.10;;
45136;SDS011;30894;51.740;19.498;2023-07-28T10:17:44;0.30;;;0.30;;
45136;SDS011;30894;51.740;19.498;2023-07-28T10:25:42;0.65;;;0.30;;
45136;SDS011;30894;51.740;19.498;2023-07-28T10:28:25;0.35;;;0.35;;
45136;SDS011;30894;51.740;19.498;2023-07-28T10:31:01;0.20;;;0.20;;
45136;SDS011;30894;51.740;19.498;2023-07-28T10:33:31;0.30;;;0.30;;
45136;SDS011;30894;51.740;19.498;2023-07-28T10:39:01;0.30;;;0.30;;
45136;SDS011;30894;51.740;19.498;2023-07-28T10:41:38;2.65;;;0.55;;
45136;SDS011;30894;51.740;19.498;2023-07-28T10:44:26;0.40;;;0.40;;
45136;SDS011;30894;51.740;19.498;2023-07-28T10:46:53;0.30;;;0.30;;
45136;SDS011;30894;51.740;19.498;2023-07-28T10:49:19;0.85;;;0.60;;
45136;SDS011;30894;51.740;19.498;2023-07-28T10:51:45;0.30;;;0.30;;
45136;SDS011;30894;51.740;19.498;2023-07-28T10:54:11;0.98;;;0.40;;
45136;SDS011;30894;51.740;19.498;2023-07-28T10:56:42;0.45;;;0.30;;
45136;SDS011;30894;51.740;19.498;2023-07-28T10:59:08;0.20;;;0.20;;
45136;SDS011;30894;51.740;19.498;2023-07-28T11:01:37;0.25;;;0.20;;
45136;SDS011;30894;51.740;19.498;2023-07-28T11:04:15;0.20;;;0.13;;
45136;SDS011;30894;51.740;19.498;2023-07-28T11:06:43;0.30;;;0.25;;
45136;SDS011;30894;51.740;19.498;2023-07-28T11:09:12;0.30;;;0.15;;
45136;SDS011;30894;51.740;19.498;2023-07-28T11:11:42;0.17;;;0.17;;
45136;SDS011;30894;51.740;19.498;2023-07-28T11:14:09;0.70;;;0.50;;
45136;SDS011;30894;51.740;19.498;2023-07-28T11:16:37;0.30;;;0.25;;
45136;SDS011;30894;51.740;19.498;2023-07-28T11:19:09;0.70;;;0.30;;
45136;SDS011;30894;51.740;19.498;2023-07-28T11:21:38;0.20;;;0.20;;
45136;SDS011;30894;51.740;19.498;2023-07-28T11:24:05;0.15;;;0.10;;
45136;SDS011;30894;51.740;19.498;2023-07-28T11:26:37;0.17;;;0.17;;
45136;SDS011;30894;51.740;19.498;2023-07-28T11:29:04;0.28;;;0.28;;
45136;SDS011;30894;51.740;19.498;2023-07-28T11:31:31;0.17;;;0.17;;
45136;SDS011;30894;51.740;19.498;2023-07-28T11:34:00;0.20;;;0.15;;
45136;SDS011;30894;51.740;19.498;2023-07-28T11:36:28;0.65;;;0.60;;
45136;SDS011;30894;51.740;19.498;2023-07-28T11:38:56;0.80;;;0.70;;
45136;SDS011;30894;51.740;19.498;2023-07-28T11:41:25;0.75;;;0.55;;
45136;SDS011;30894;51.740;19.498;2023-07-28T11:43:52;0.88;;;0.43;;
45136;SDS011;30894;51.740;19.498;2023-07-28T11:46:34;0.70;;;0.60;;
45136;SDS011;30894;51.740;19.498;2023-07-28T11:49:14;0.73;;;0.63;;
45136;SDS011;30894;51.740;19.498;2023-07-28T11:51:48;0.60;;;0.60;;
45136;SDS011;30894;51.740;19.498;2023-07-28T11:54:18;1.17;;;0.80;;
45136;SDS011;30894;51.740;19.498;2023-07-28T11:56:50;1.05;;;0.60;;
45136;SDS011;30894;51.740;19.498;2023-07-28T11:59:21;3.95;;;0.70;;
45136;SDS011;30894;51.740;19.498;2023-07-28T12:01:51;0.80;;;0.80;;
45136;SDS011;30894;51.740;19.498;2023-07-28T12:04:26;0.77;;;0.70;;
45136;SDS011;30894;51.740;19.498;2023-07-28T12:07:01;0.43;;;0.43;;
45136;SDS011;30894;51.740;19.498;2023-07-28T12:09:28;0.47;;;0.47;;
45136;SDS011;30894;51.740;19.498;2023-07-28T12:11:57;1.23;;;0.77;;
45136;SDS011;30894;51.740;19.498;2023-07-28T12:14:34;0.60;;;0.60;;
45136;SDS011;30894;51.740;19.498;2023-07-28T12:17:00;0.60;;;0.60;;
45136;SDS011;30894;51.740;19.498;2023-07-28T12:19:28;0.98;;;0.60;;
45136;SDS011;30894;51.740;19.498;2023-07-28T12:21:54;0.75;;;0.70;;
45136;SDS011;30894;51.740;19.498;2023-07-28T12:24:20;0.88;;;0.35;;
45136;SDS011;30894;51.740;19.498;2023-07-28T12:26:47;1.85;;;0.80;;
45136;SDS011;30894;51.740;19.498;2023-07-28T12:29:14;1.13;;;0.85;;
45136;SDS011;30894;51.740;19.498;2023-07-28T12:31:41;3.60;;;1.08;;
45136;SDS011;30894;51.740;19.498;2023-07-28T12:34:06;1.25;;;0.77;;
45136;SDS011;30894;51.740;19.498;2023-07-28T12:36:33;0.68;;;0.65;;
45136;SDS011;30894;51.740;19.498;2023-07-28T12:38:59;3.35;;;0.85;;
45136;SDS011;30894;51.740;19.498;2023-07-28T12:41:26;1.35;;;0.77;;
45136;SDS011;30894;51.740;19.498;2023-07-28T12:43:52;1.65;;;0.35;;
45136;SDS011;30894;51.740;19.498;2023-07-28T12:46:21;0.00;;;0.00;;
45136;SDS011;30894;51.740;19.498;2023-07-28T12:48:47;0.00;;;0.00;;
45136;SDS011;30894;51.740;19.498;2023-07-28T12:51:14;0.00;;;0.00;;
45136;SDS011;30894;51.740;19.498;2023-07-28T12:53:40;0.00;;;0.00;;
45136;SDS011;30894;51.740;19.498;2023-07-28T12:56:06;0.00;;;0.00;;
45136;SDS011;30894;51.740;19.498;2023-07-28T12:58:32;0.00;;;0.00;;
45136;SDS011;30894;51.740;19.498;2023-07-28T13:00:59;0.00;;;0.00;;
45136;SDS011;30894;51.740;19.498;2023-07-28T13:03:27;0.00;;;0.00;;
45136;SDS011;30894;51.740;19.498;2023-07-28T13:05:56;0.00;;;0.00;;
45136;SDS011;30894;51.740;19.498;2023-07-28T13:08:25;0.00;;;0.00;;
45136;SDS011;30894;51.740;19.498;2023-07-28T13:10:56;0.00;;;0.00;;
45136;SDS011;30894;51.740;19.498;2023-07-28T13:13:31;0.00;;;0.00;;
45136;SDS011;30894;51.740;19.498;2023-07-28T13:16:00;0.00;;;0.00;;
45136;SDS011;30894;51.740;19.498;2023-07-28T13:18:28;0.00;;;0.00;;
45136;SDS011;30894;51.740;19.498;2023-07-28T13:20:56;0.00;;;0.00;;
45136;SDS011;30894;51.740;19.498;2023-07-28T13:23:23;0.00;;;0.00;;
45136;SDS011;30894;51.740;19.498;2023-07-28T13:26:08;0.00;;;0.00;;
45136;SDS011;30894;51.740;19.498;2023-07-28T13:28:34;0.00;;;0.00;;
45136;SDS011;30894;51.740;19.498;2023-07-28T13:31:15;0.00;;;0.00;;
45136;SDS011;30894;51.740;19.498;2023-07-28T13:33:45;0.00;;;0.00;;
45136;SDS011;30894;51.740;19.498;2023-07-28T13:39:04;0.00;;;0.00;;
45136;SDS011;30894;51.740;19.498;2023-07-28T13:41:37;0.00;;;0.00;;
45136;SDS011;30894;51.740;19.498;2023-07-28T13:44:08;0.00;;;0.00;;
45136;SDS011;30894;51.740;19.498;2023-07-28T13:46:34;0.00;;;0.00;;
45136;SDS011;30894;51.740;19.498;2023-07-28T13:49:02;0.00;;;0.00;;
45136;SDS011;30894;51.740;19.498;2023-07-28T13:51:33;0.00;;;0.00;;
45136;SDS011;30894;51.740;19.498;2023-07-28T13:53:59;0.00;;;0.00;;
45136;SDS011;30894;51.740;19.498;2023-07-28T13:56:25;0.00;;;0.00;;
45136;SDS011;30894;51.740;19.498;2023-07-28T13:58:51;0.00;;;0.00;;
45136;SDS011;30894;51.740;19.498;2023-07-28T14:01:17;0.00;;;0.00;;
45136;SDS011;30894;51.740;19.498;2023-07-28T14:03:43;0.00;;;0.00;;
45136;SDS011;30894;51.740;19.498;2023-07-28T14:06:10;0.00;;;0.00;;
45136;SDS011;30894;51.740;19.498;2023-07-28T14:08:36;0.00;;;0.00;;
45136;SDS011;30894;51.740;19.498;2023-07-28T14:11:02;0.00;;;0.00;;
45136;SDS011;30894;51.740;19.498;2023-07-28T14:13:28;0.00;;;0.00;;
45136;SDS011;30894;51.740;19.498;2023-07-28T14:15:57;0.10;;;0.10;;
45136;SDS011;30894;51.740;19.498;2023-07-28T14:18:25;0.00;;;0.00;;
45136;SDS011;30894;51.740;19.498;2023-07-28T14:20:51;0.00;;;0.00;;
45136;SDS011;30894;51.740;19.498;2023-07-28T14:23:24;0.00;;;0.00;;
45136;SDS011;30894;51.740;19.498;2023-07-28T14:25:53;0.00;;;0.00;;
45136;SDS011;30894;51.740;19.498;2023-07-28T14:28:19;0.00;;;0.00;;
45136;SDS011;30894;51.740;19.498;2023-07-28T14:30:47;0.00;;;0.00;;
45136;SDS011;30894;51.740;19.498;2023-07-28T14:33:16;0.00;;;0.00;;
45136;SDS011;30894;51.740;19.498;2023-07-28T14:35:44;0.82;;;0.70;;
45136;SDS011;30894;51.740;19.498;2023-07-28T14:38:11;1.08;;;1.00;;
45136;SDS011;30894;51.740;19.498;2023-07-28T14:40:37;1.17;;;0.85;;
45136;SDS011;30894;51.740;19.498;2023-07-28T14:43:05;1.25;;;0.90;;
45136;SDS011;30894;51.740;19.498;2023-07-28T14:45:32;1.48;;;0.82;;
45136;SDS011;30894;51.740;19.498;2023-07-28T14:47:58;0.77;;;0.77;;
45136;SDS011;30894;51.740;19.498;2023-07-28T14:50:26;0.70;;;0.70;;
45136;SDS011;30894;51.740;19.498;2023-07-28T14:52:52;0.93;;;0.85;;